sensor_id;sensor_type;location;lat;lon;timestamp;P1;durP1;ratioP1;P2;durP2;ratioP2
64188;SDS011;50493;50.970;10.082;2022-09-04T00:01:54;3.88;;;3.20;;
64188;SDS011;50493;50.970;10.082;2022-09-04T00:04:32;5.65;;;3.13;;
64188;SDS011;50493;50.970;10.082;2022-09-04T00:07:10;3.80;;;3.33;;
64188;SDS011;50493;50.970;10.082;2022-09-04T00:09:44;4.57;;;2.97;;
64188;SDS011;50493;50.970;10.082;2022-09-04T00:12:21;4.05;;;3.35;;
64188;SDS011;50493;50.970;10.082;2022-09-04T00:14:56;4.95;;;3.30;;
64188;SDS011;50493;50.970;10.082;2022-09-04T00:17:28;3.65;;;3.05;;
64188;SDS011;50493;50.970;10.082;2022-09-04T00:20:00;4.00;;;3.60;;
64188;SDS011;50493;50.970;10.082;2022-09-04T00:22:31;3.78;;;3.20;;
64188;SDS011;50493;50.970;10.082;2022-09-04T00:25:02;3.55;;;2.80;;
64188;SDS011;50493;50.970;10.082;2022-09-04T00:27:36;3.90;;;3.30;;
64188;SDS011;50493;50.970;10.082;2022-09-04T00:30:11;3.78;;;3.20;;
64188;SDS011;50493;50.970;10.082;2022-09-04T00:32:40;3.97;;;3.20;;
64188;SDS011;50493;50.970;10.082;2022-09-04T00:35:14;4.30;;;3.45;;
64188;SDS011;50493;50.970;10.082;2022-09-04T00:37:44;4.72;;;3.47;;
64188;SDS011;50493;50.970;10.082;2022-09-04T00:40:16;3.97;;;3.45;;
64188;SDS011;50493;50.970;10.082;2022-09-04T00:43:01;4.80;;;3.35;;
64188;SDS011;50493;50.970;10.082;2022-09-04T00:45:48;3.78;;;3.28;;
64188;SDS011;50493;50.970;10.082;2022-09-04T00:48:27;3.92;;;3.50;;
64188;SDS011;50493;50.970;10.082;2022-09-04T00:51:13;4.00;;;3.33;;
64188;SDS011;50493;50.970;10.082;2022-09-04T00:54:00;3.90;;;3.10;;
64188;SDS011;50493;50.970;10.082;2022-09-04T00:56:51;4.55;;;3.40;;
64188;SDS011;50493;50.970;10.082;2022-09-04T00:59:40;3.90;;;3.30;;
64188;SDS011;50493;50.970;10.082;2022-09-04T01:02:25;3.95;;;3.45;;
64188;SDS011;50493;50.970;10.082;2022-09-04T01:05:02;4.22;;;3.50;;
64188;SDS011;50493;50.970;10.082;2022-09-04T01:07:53;3.72;;;3.30;;
64188;SDS011;50493;50.970;10.082;2022-09-04T01:10:29;4.40;;;3.80;;
64188;SDS011;50493;50.970;10.082;2022-09-04T01:13:02;4.40;;;3.72;;
64188;SDS011;50493;50.970;10.082;2022-09-04T01:15:35;4.32;;;3.58;;
64188;SDS011;50493;50.970;10.082;2022-09-04T01:18:07;3.78;;;3.05;;
64188;SDS011;50493;50.970;10.082;2022-09-04T01:20:45;3.53;;;3.20;;
64188;SDS011;50493;50.970;10.082;2022-09-04T01:23:25;4.60;;;3.83;;
64188;SDS011;50493;50.970;10.082;2022-09-04T01:26:07;4.38;;;3.53;;
64188;SDS011;50493;50.970;10.082;2022-09-04T01:28:34;4.53;;;3.72;;
64188;SDS011;50493;50.970;10.082;2022-09-04T01:31:12;4.53;;;3.70;;
64188;SDS011;50493;50.970;10.082;2022-09-04T01:33:50;3.90;;;3.00;;
64188;SDS011;50493;50.970;10.082;2022-09-04T01:36:26;4.43;;;3.40;;
64188;SDS011;50493;50.970;10.082;2022-09-04T01:38:58;4.90;;;3.90;;
64188;SDS011;50493;50.970;10.082;2022-09-04T01:41:27;4.40;;;3.35;;
64188;SDS011;50493;50.970;10.082;2022-09-04T01:43:56;4.40;;;3.45;;
64188;SDS011;50493;50.970;10.082;2022-09-04T01:46:30;3.75;;;3.20;;
64188;SDS011;50493;50.970;10.082;2022-09-04T01:49:07;4.97;;;3.90;;
64188;SDS011;50493;50.970;10.082;2022-09-04T01:51:42;4.55;;;3.67;;
64188;SDS011;50493;50.970;10.082;2022-09-04T01:54:18;5.53;;;3.70;;
64188;SDS011;50493;50.970;10.082;2022-09-04T01:56:59;3.97;;;3.47;;
64188;SDS011;50493;50.970;10.082;2022-09-04T01:59:34;4.28;;;3.60;;
64188;SDS011;50493;50.970;10.082;2022-09-04T02:02:09;4.63;;;3.20;;
64188;SDS011;50493;50.970;10.082;2022-09-04T02:04:46;4.13;;;3.58;;
64188;SDS011;50493;50.970;10.082;2022-09-04T02:07:20;4.35;;;3.30;;
64188;SDS011;50493;50.970;10.082;2022-09-04T02:09:53;4.32;;;3.78;;
64188;SDS011;50493;50.970;10.082;2022-09-04T02:12:30;4.32;;;3.80;;
64188;SDS011;50493;50.970;10.082;2022-09-04T02:15:02;3.90;;;3.13;;
64188;SDS011;50493;50.970;10.082;2022-09-04T02:17:37;4.78;;;3.55;;
64188;SDS011;50493;50.970;10.082;2022-09-04T02:20:11;4.28;;;3.65;;
64188;SDS011;50493;50.970;10.082;2022-09-04T02:22:47;3.53;;;3.10;;
64188;SDS011;50493;50.970;10.082;2022-09-04T02:25:24;4.28;;;3.50;;
64188;SDS011;50493;50.970;10.082;2022-09-04T02:27:58;3.80;;;3.13;;
64188;SDS011;50493;50.970;10.082;2022-09-04T02:33:10;4.47;;;3.42;;
64188;SDS011;50493;50.970;10.082;2022-09-04T02:35:41;4.68;;;3.33;;
64188;SDS011;50493;50.970;10.082;2022-09-04T02:38:14;4.60;;;3.83;;
64188;SDS011;50493;50.970;10.082;2022-09-04T02:40:49;5.03;;;4.18;;
64188;SDS011;50493;50.970;10.082;2022-09-04T02:43:40;4.80;;;3.78;;
64188;SDS011;50493;50.970;10.082;2022-09-04T02:46:23;4.57;;;3.80;;
64188;SDS011;50493;50.970;10.082;2022-09-04T02:49:00;4.45;;;3.83;;
64188;SDS011;50493;50.970;10.082;2022-09-04T02:51:38;3.88;;;3.22;;
64188;SDS011;50493;50.970;10.082;2022-09-04T02:54:15;4.15;;;3.50;;
64188;SDS011;50493;50.970;10.082;2022-09-04T02:56:47;3.97;;;3.58;;
64188;SDS011;50493;50.970;10.082;2022-09-04T02:59:26;4.45;;;3.35;;
64188;SDS011;50493;50.970;10.082;2022-09-04T03:02:02;4.72;;;3.88;;
64188;SDS011;50493;50.970;10.082;2022-09-04T03:04:30;3.92;;;3.50;;
64188;SDS011;50493;50.970;10.082;2022-09-04T03:07:01;4.45;;;3.47;;
64188;SDS011;50493;50.970;10.082;2022-09-04T03:09:35;4.10;;;3.50;;
64188;SDS011;50493;50.970;10.082;2022-09-04T03:12:11;4.25;;;3.50;;
64188;SDS011;50493;50.970;10.082;2022-09-04T03:14:52;3.95;;;3.50;;
64188;SDS011;50493;50.970;10.082;2022-09-04T03:17:26;4.95;;;3.38;;
64188;SDS011;50493;50.970;10.082;2022-09-04T03:19:58;4.38;;;3.13;;
64188;SDS011;50493;50.970;10.082;2022-09-04T03:22:29;4.18;;;3.35;;
64188;SDS011;50493;50.970;10.082;2022-09-04T03:25:02;4.20;;;3.53;;
64188;SDS011;50493;50.970;10.082;2022-09-04T03:27:47;4.32;;;3.50;;
64188;SDS011;50493;50.970;10.082;2022-09-04T03:30:14;4.32;;;3.63;;
64188;SDS011;50493;50.970;10.082;2022-09-04T03:32:43;4.28;;;3.60;;
64188;SDS011;50493;50.970;10.082;2022-09-04T03:35:17;4.82;;;3.38;;
64188;SDS011;50493;50.970;10.082;2022-09-04T03:37:52;4.30;;;3.60;;
64188;SDS011;50493;50.970;10.082;2022-09-04T03:40:32;4.30;;;3.60;;
64188;SDS011;50493;50.970;10.082;2022-09-04T03:43:05;4.63;;;3.53;;
64188;SDS011;50493;50.970;10.082;2022-09-04T03:45:45;4.13;;;3.72;;
64188;SDS011;50493;50.970;10.082;2022-09-04T03:50:54;4.10;;;3.25;;
64188;SDS011;50493;50.970;10.082;2022-09-04T03:53:27;4.72;;;3.55;;
64188;SDS011;50493;50.970;10.082;2022-09-04T03:58:59;5.30;;;3.75;;
64188;SDS011;50493;50.970;10.082;2022-09-04T04:01:30;4.30;;;3.40;;
64188;SDS011;50493;50.970;10.082;2022-09-04T04:07:13;4.55;;;3.65;;
64188;SDS011;50493;50.970;10.082;2022-09-04T04:09:50;4.65;;;3.97;;
64188;SDS011;50493;50.970;10.082;2022-09-04T04:12:32;4.32;;;3.45;;
64188;SDS011;50493;50.970;10.082;2022-09-04T04:15:10;4.28;;;3.53;;
64188;SDS011;50493;50.970;10.082;2022-09-04T04:20:39;4.30;;;3.70;;
64188;SDS011;50493;50.970;10.082;2022-09-04T04:23:23;4.28;;;3.80;;
64188;SDS011;50493;50.970;10.082;2022-09-04T04:26:00;5.55;;;3.60;;
64188;SDS011;50493;50.970;10.082;2022-09-04T04:28:36;4.28;;;3.25;;
64188;SDS011;50493;50.970;10.082;2022-09-04T04:31:25;4.47;;;3.50;;
64188;SDS011;50493;50.970;10.082;2022-09-04T04:34:03;4.15;;;3.40;;
64188;SDS011;50493;50.970;10.082;2022-09-04T04:36:35;4.45;;;3.85;;
64188;SDS011;50493;50.970;10.082;2022-09-04T04:39:09;4.53;;;3.30;;
64188;SDS011;50493;50.970;10.082;2022-09-04T04:41:52;4.40;;;3.65;;
64188;SDS011;50493;50.970;10.082;2022-09-04T04:44:34;4.05;;;3.38;;
64188;SDS011;50493;50.970;10.082;2022-09-04T04:47:35;6.07;;;3.20;;
64188;SDS011;50493;50.970;10.082;2022-09-04T04:50:17;4.30;;;3.30;;
64188;SDS011;50493;50.970;10.082;2022-09-04T04:52:48;4.18;;;3.33;;
64188;SDS011;50493;50.970;10.082;2022-09-04T04:55:23;3.90;;;3.25;;
64188;SDS011;50493;50.970;10.082;2022-09-04T05:00:52;4.22;;;3.30;;
64188;SDS011;50493;50.970;10.082;2022-09-04T05:03:32;4.15;;;3.40;;
64188;SDS011;50493;50.970;10.082;2022-09-04T05:06:10;4.35;;;3.50;;
64188;SDS011;50493;50.970;10.082;2022-09-04T05:08:45;5.28;;;3.47;;
64188;SDS011;50493;50.970;10.082;2022-09-04T05:11:20;5.13;;;3.72;;
64188;SDS011;50493;50.970;10.082;2022-09-04T05:13:56;4.10;;;3.17;;
64188;SDS011;50493;50.970;10.082;2022-09-04T05:16:29;4.53;;;3.55;;
64188;SDS011;50493;50.970;10.082;2022-09-04T05:19:01;4.63;;;3.80;;
64188;SDS011;50493;50.970;10.082;2022-09-04T05:21:37;4.15;;;3.25;;
64188;SDS011;50493;50.970;10.082;2022-09-04T05:24:13;4.38;;;3.47;;
64188;SDS011;50493;50.970;10.082;2022-09-04T05:26:45;4.97;;;3.45;;
64188;SDS011;50493;50.970;10.082;2022-09-04T05:29:18;3.70;;;3.30;;
64188;SDS011;50493;50.970;10.082;2022-09-04T05:31:50;4.20;;;3.40;;
64188;SDS011;50493;50.970;10.082;2022-09-04T05:34:21;3.63;;;2.92;;
64188;SDS011;50493;50.970;10.082;2022-09-04T05:37:01;3.83;;;3.35;;
64188;SDS011;50493;50.970;10.082;2022-09-04T05:39:36;3.95;;;3.33;;
64188;SDS011;50493;50.970;10.082;2022-09-04T05:42:16;4.15;;;3.40;;
64188;SDS011;50493;50.970;10.082;2022-09-04T05:45:04;4.18;;;3.50;;
64188;SDS011;50493;50.970;10.082;2022-09-04T05:52:47;4.18;;;3.63;;
64188;SDS011;50493;50.970;10.082;2022-09-04T05:55:44;3.90;;;3.22;;
64188;SDS011;50493;50.970;10.082;2022-09-04T05:58:25;6.13;;;4.22;;
64188;SDS011;50493;50.970;10.082;2022-09-04T06:01:06;5.68;;;4.55;;
64188;SDS011;50493;50.970;10.082;2022-09-04T06:03:47;6.38;;;4.70;;
64188;SDS011;50493;50.970;10.082;2022-09-04T06:06:28;5.07;;;4.57;;
64188;SDS011;50493;50.970;10.082;2022-09-04T06:12:01;4.13;;;3.65;;
64188;SDS011;50493;50.970;10.082;2022-09-04T06:14:49;5.88;;;4.63;;
64188;SDS011;50493;50.970;10.082;2022-09-04T06:17:36;4.68;;;4.18;;
64188;SDS011;50493;50.970;10.082;2022-09-04T06:20:18;5.40;;;4.90;;
64188;SDS011;50493;50.970;10.082;2022-09-04T06:23:00;4.15;;;3.65;;
64188;SDS011;50493;50.970;10.082;2022-09-04T06:25:47;4.00;;;3.35;;
64188;SDS011;50493;50.970;10.082;2022-09-04T06:28:27;4.97;;;4.45;;
64188;SDS011;50493;50.970;10.082;2022-09-04T06:31:07;3.38;;;3.05;;
64188;SDS011;50493;50.970;10.082;2022-09-04T06:33:54;3.42;;;3.13;;
64188;SDS011;50493;50.970;10.082;2022-09-04T06:36:31;4.85;;;4.35;;
64188;SDS011;50493;50.970;10.082;2022-09-04T06:39:07;6.68;;;5.00;;
64188;SDS011;50493;50.970;10.082;2022-09-04T06:41:45;6.35;;;5.18;;
64188;SDS011;50493;50.970;10.082;2022-09-04T06:44:23;5.70;;;5.15;;
64188;SDS011;50493;50.970;10.082;2022-09-04T06:47:01;5.75;;;5.18;;
64188;SDS011;50493;50.970;10.082;2022-09-04T06:49:49;5.90;;;4.90;;
64188;SDS011;50493;50.970;10.082;2022-09-04T06:52:29;3.40;;;3.10;;
64188;SDS011;50493;50.970;10.082;2022-09-04T06:55:04;3.70;;;3.30;;
64188;SDS011;50493;50.970;10.082;2022-09-04T06:57:45;4.60;;;4.05;;
64188;SDS011;50493;50.970;10.082;2022-09-04T07:00:22;3.70;;;3.08;;
64188;SDS011;50493;50.970;10.082;2022-09-04T07:03:00;5.65;;;3.30;;
64188;SDS011;50493;50.970;10.082;2022-09-04T07:05:41;3.40;;;3.10;;
64188;SDS011;50493;50.970;10.082;2022-09-04T07:08:17;3.88;;;3.47;;
64188;SDS011;50493;50.970;10.082;2022-09-04T07:10:51;3.42;;;3.00;;
64188;SDS011;50493;50.970;10.082;2022-09-04T07:13:35;3.70;;;3.33;;
64188;SDS011;50493;50.970;10.082;2022-09-04T07:16:24;6.05;;;5.05;;
64188;SDS011;50493;50.970;10.082;2022-09-04T07:19:11;4.85;;;4.35;;
64188;SDS011;50493;50.970;10.082;2022-09-04T07:21:49;4.78;;;4.28;;
64188;SDS011;50493;50.970;10.082;2022-09-04T07:27:20;5.20;;;4.60;;
64188;SDS011;50493;50.970;10.082;2022-09-04T07:30:02;3.90;;;3.20;;
64188;SDS011;50493;50.970;10.082;2022-09-04T07:32:33;4.22;;;3.45;;
64188;SDS011;50493;50.970;10.082;2022-09-04T07:35:03;4.00;;;3.60;;
64188;SDS011;50493;50.970;10.082;2022-09-04T07:37:35;3.70;;;3.33;;
64188;SDS011;50493;50.970;10.082;2022-09-04T07:40:12;3.65;;;3.35;;
64188;SDS011;50493;50.970;10.082;2022-09-04T07:42:41;4.00;;;3.28;;
64188;SDS011;50493;50.970;10.082;2022-09-04T07:45:17;3.40;;;3.10;;
64188;SDS011;50493;50.970;10.082;2022-09-04T07:47:56;4.40;;;4.00;;
64188;SDS011;50493;50.970;10.082;2022-09-04T07:50:30;3.60;;;3.30;;
64188;SDS011;50493;50.970;10.082;2022-09-04T07:55:37;5.25;;;3.90;;
64188;SDS011;50493;50.970;10.082;2022-09-04T07:58:20;4.85;;;4.05;;
64188;SDS011;50493;50.970;10.082;2022-09-04T08:01:08;3.88;;;3.47;;
64188;SDS011;50493;50.970;10.082;2022-09-04T08:03:56;4.68;;;3.80;;
64188;SDS011;50493;50.970;10.082;2022-09-04T08:06:36;4.18;;;3.70;;
64188;SDS011;50493;50.970;10.082;2022-09-04T08:09:15;3.80;;;3.40;;
64188;SDS011;50493;50.970;10.082;2022-09-04T08:12:02;4.90;;;4.10;;
64188;SDS011;50493;50.970;10.082;2022-09-04T08:14:42;4.95;;;3.80;;
64188;SDS011;50493;50.970;10.082;2022-09-04T08:17:29;4.75;;;4.05;;
64188;SDS011;50493;50.970;10.082;2022-09-04T08:20:08;4.65;;;3.78;;
64188;SDS011;50493;50.970;10.082;2022-09-04T08:22:46;4.78;;;3.67;;
64188;SDS011;50493;50.970;10.082;2022-09-04T08:25:23;4.40;;;3.30;;
64188;SDS011;50493;50.970;10.082;2022-09-04T08:27:55;4.03;;;3.40;;
64188;SDS011;50493;50.970;10.082;2022-09-04T08:30:34;4.68;;;3.72;;
64188;SDS011;50493;50.970;10.082;2022-09-04T08:33:11;4.72;;;3.17;;
64188;SDS011;50493;50.970;10.082;2022-09-04T08:35:59;3.97;;;2.78;;
64188;SDS011;50493;50.970;10.082;2022-09-04T08:38:33;4.20;;;3.28;;
64188;SDS011;50493;50.970;10.082;2022-09-04T08:41:14;4.60;;;2.97;;
64188;SDS011;50493;50.970;10.082;2022-09-04T08:44:10;4.25;;;3.20;;
64188;SDS011;50493;50.970;10.082;2022-09-04T08:47:06;4.95;;;3.22;;
64188;SDS011;50493;50.970;10.082;2022-09-04T08:52:51;4.85;;;2.65;;
64188;SDS011;50493;50.970;10.082;2022-09-04T08:55:45;3.55;;;2.88;;
64188;SDS011;50493;50.970;10.082;2022-09-04T08:58:23;4.25;;;3.03;;
64188;SDS011;50493;50.970;10.082;2022-09-04T09:01:20;6.18;;;3.20;;
64188;SDS011;50493;50.970;10.082;2022-09-04T09:07:08;4.22;;;2.70;;
64188;SDS011;50493;50.970;10.082;2022-09-04T09:10:02;3.80;;;2.80;;
64188;SDS011;50493;50.970;10.082;2022-09-04T09:16:20;3.53;;;2.80;;
64188;SDS011;50493;50.970;10.082;2022-09-04T09:21:52;3.53;;;2.50;;
64188;SDS011;50493;50.970;10.082;2022-09-04T09:30:35;3.60;;;2.72;;
64188;SDS011;50493;50.970;10.082;2022-09-04T09:33:32;4.22;;;2.65;;
64188;SDS011;50493;50.970;10.082;2022-09-04T09:36:31;5.18;;;3.05;;
64188;SDS011;50493;50.970;10.082;2022-09-04T09:39:15;3.17;;;2.60;;
64188;SDS011;50493;50.970;10.082;2022-09-04T09:42:09;3.70;;;2.88;;
64188;SDS011;50493;50.970;10.082;2022-09-04T09:45:03;4.93;;;2.58;;
64188;SDS011;50493;50.970;10.082;2022-09-04T09:48:14;6.10;;;2.80;;
64188;SDS011;50493;50.970;10.082;2022-09-04T09:56:59;2.42;;;2.22;;
64188;SDS011;50493;50.970;10.082;2022-09-04T10:02:45;3.17;;;2.50;;
64188;SDS011;50493;50.970;10.082;2022-09-04T10:05:50;3.17;;;2.58;;
64188;SDS011;50493;50.970;10.082;2022-09-04T10:08:36;3.38;;;2.65;;
64188;SDS011;50493;50.970;10.082;2022-09-04T10:11:16;2.70;;;2.30;;
64188;SDS011;50493;50.970;10.082;2022-09-04T10:14:02;3.30;;;2.50;;
64188;SDS011;50493;50.970;10.082;2022-09-04T10:19:34;4.55;;;2.65;;
64188;SDS011;50493;50.970;10.082;2022-09-04T10:22:31;3.70;;;2.65;;
64188;SDS011;50493;50.970;10.082;2022-09-04T10:25:22;3.15;;;2.30;;
64188;SDS011;50493;50.970;10.082;2022-09-04T10:28:08;6.38;;;2.92;;
64188;SDS011;50493;50.970;10.082;2022-09-04T10:30:57;3.38;;;2.33;;
64188;SDS011;50493;50.970;10.082;2022-09-04T10:33:44;2.63;;;2.00;;
64188;SDS011;50493;50.970;10.082;2022-09-04T10:36:25;3.75;;;2.28;;
64188;SDS011;50493;50.970;10.082;2022-09-04T10:39:06;4.72;;;2.33;;
64188;SDS011;50493;50.970;10.082;2022-09-04T10:42:07;5.43;;;2.67;;
64188;SDS011;50493;50.970;10.082;2022-09-04T10:44:43;4.35;;;2.60;;
64188;SDS011;50493;50.970;10.082;2022-09-04T10:47:19;3.00;;;2.22;;
64188;SDS011;50493;50.970;10.082;2022-09-04T10:52:36;2.67;;;2.20;;
64188;SDS011;50493;50.970;10.082;2022-09-04T11:00:45;3.45;;;2.35;;
64188;SDS011;50493;50.970;10.082;2022-09-04T11:03:35;2.30;;;2.10;;
64188;SDS011;50493;50.970;10.082;2022-09-04T11:12:14;2.55;;;1.83;;
64188;SDS011;50493;50.970;10.082;2022-09-04T11:18:22;2.30;;;2.00;;
64188;SDS011;50493;50.970;10.082;2022-09-04T11:21:12;2.72;;;2.20;;
64188;SDS011;50493;50.970;10.082;2022-09-04T11:24:21;2.00;;;1.80;;
64188;SDS011;50493;50.970;10.082;2022-09-04T11:27:12;3.38;;;1.85;;
64188;SDS011;50493;50.970;10.082;2022-09-04T11:30:09;2.25;;;1.88;;
64188;SDS011;50493;50.970;10.082;2022-09-04T11:32:45;2.72;;;2.03;;
64188;SDS011;50493;50.970;10.082;2022-09-04T11:35:26;3.08;;;2.08;;
64188;SDS011;50493;50.970;10.082;2022-09-04T11:38:16;2.50;;;2.05;;
64188;SDS011;50493;50.970;10.082;2022-09-04T11:50:13;2.10;;;1.90;;
64188;SDS011;50493;50.970;10.082;2022-09-04T11:52:49;2.30;;;1.95;;
64188;SDS011;50493;50.970;10.082;2022-09-04T11:55:34;1.98;;;1.50;;
64188;SDS011;50493;50.970;10.082;2022-09-04T11:58:24;2.60;;;2.08;;
64188;SDS011;50493;50.970;10.082;2022-09-04T12:01:08;2.42;;;1.50;;
64188;SDS011;50493;50.970;10.082;2022-09-04T12:03:51;1.85;;;1.65;;
64188;SDS011;50493;50.970;10.082;2022-09-04T12:06:38;3.40;;;1.60;;
64188;SDS011;50493;50.970;10.082;2022-09-04T12:09:31;2.25;;;1.60;;
64188;SDS011;50493;50.970;10.082;2022-09-04T12:12:14;2.83;;;1.90;;
64188;SDS011;50493;50.970;10.082;2022-09-04T12:14:58;3.10;;;1.90;;
64188;SDS011;50493;50.970;10.082;2022-09-04T12:17:39;13.10;;;2.25;;
64188;SDS011;50493;50.970;10.082;2022-09-04T12:20:35;3.45;;;1.70;;
64188;SDS011;50493;50.970;10.082;2022-09-04T12:23:15;2.92;;;1.48;;
64188;SDS011;50493;50.970;10.082;2022-09-04T12:32:10;1.58;;;1.48;;
64188;SDS011;50493;50.970;10.082;2022-09-04T12:34:53;3.25;;;1.60;;
64188;SDS011;50493;50.970;10.082;2022-09-04T12:37:35;1.55;;;1.45;;
64188;SDS011;50493;50.970;10.082;2022-09-04T12:40:28;2.30;;;1.65;;
64188;SDS011;50493;50.970;10.082;2022-09-04T12:42:58;1.95;;;1.60;;
64188;SDS011;50493;50.970;10.082;2022-09-04T12:45:32;2.03;;;1.58;;
64188;SDS011;50493;50.970;10.082;2022-09-04T12:48:07;2.38;;;1.55;;
64188;SDS011;50493;50.970;10.082;2022-09-04T12:50:39;2.78;;;1.70;;
64188;SDS011;50493;50.970;10.082;2022-09-04T12:53:19;9.95;;;2.13;;
64188;SDS011;50493;50.970;10.082;2022-09-04T12:55:57;3.08;;;1.80;;
64188;SDS011;50493;50.970;10.082;2022-09-04T12:58:33;2.88;;;1.60;;
64188;SDS011;50493;50.970;10.082;2022-09-04T13:01:11;2.10;;;1.70;;
64188;SDS011;50493;50.970;10.082;2022-09-04T13:03:48;3.83;;;1.50;;
64188;SDS011;50493;50.970;10.082;2022-09-04T13:06:24;1.90;;;1.50;;
64188;SDS011;50493;50.970;10.082;2022-09-04T13:09:02;1.85;;;1.30;;
64188;SDS011;50493;50.970;10.082;2022-09-04T13:11:39;2.63;;;1.67;;
64188;SDS011;50493;50.970;10.082;2022-09-04T13:17:24;2.28;;;1.40;;
64188;SDS011;50493;50.970;10.082;2022-09-04T13:19:59;1.98;;;1.60;;
64188;SDS011;50493;50.970;10.082;2022-09-04T13:22:35;2.05;;;1.80;;
64188;SDS011;50493;50.970;10.082;2022-09-04T13:25:10;2.35;;;1.77;;
64188;SDS011;50493;50.970;10.082;2022-09-04T13:27:49;1.90;;;1.70;;
64188;SDS011;50493;50.970;10.082;2022-09-04T13:30:27;2.40;;;1.40;;
64188;SDS011;50493;50.970;10.082;2022-09-04T13:36:07;2.05;;;1.40;;
64188;SDS011;50493;50.970;10.082;2022-09-04T13:38:45;2.13;;;1.55;;
64188;SDS011;50493;50.970;10.082;2022-09-04T13:44:41;4.97;;;1.58;;
64188;SDS011;50493;50.970;10.082;2022-09-04T13:47:19;2.45;;;1.80;;
64188;SDS011;50493;50.970;10.082;2022-09-04T13:49:48;1.92;;;1.60;;
64188;SDS011;50493;50.970;10.082;2022-09-04T13:52:20;1.60;;;1.50;;
64188;SDS011;50493;50.970;10.082;2022-09-04T13:57:52;2.78;;;1.70;;
64188;SDS011;50493;50.970;10.082;2022-09-04T14:00:24;1.98;;;1.63;;
64188;SDS011;50493;50.970;10.082;2022-09-04T14:02:54;1.80;;;1.55;;
64188;SDS011;50493;50.970;10.082;2022-09-04T14:05:26;2.67;;;1.70;;
64188;SDS011;50493;50.970;10.082;2022-09-04T14:07:56;4.43;;;2.08;;
64188;SDS011;50493;50.970;10.082;2022-09-04T14:10:31;2.88;;;1.85;;
64188;SDS011;50493;50.970;10.082;2022-09-04T14:13:03;2.08;;;1.80;;
64188;SDS011;50493;50.970;10.082;2022-09-04T14:15:51;2.65;;;1.70;;
64188;SDS011;50493;50.970;10.082;2022-09-04T14:18:41;2.13;;;1.70;;
64188;SDS011;50493;50.970;10.082;2022-09-04T14:21:23;2.15;;;1.73;;
64188;SDS011;50493;50.970;10.082;2022-09-04T14:24:00;1.63;;;1.52;;
64188;SDS011;50493;50.970;10.082;2022-09-04T14:26:35;2.42;;;2.10;;
64188;SDS011;50493;50.970;10.082;2022-09-04T14:29:06;3.75;;;2.35;;
64188;SDS011;50493;50.970;10.082;2022-09-04T14:31:46;2.40;;;1.83;;
64188;SDS011;50493;50.970;10.082;2022-09-04T14:34:20;2.03;;;1.60;;
64188;SDS011;50493;50.970;10.082;2022-09-04T14:36:58;5.03;;;2.22;;
64188;SDS011;50493;50.970;10.082;2022-09-04T14:39:34;2.00;;;1.70;;
64188;SDS011;50493;50.970;10.082;2022-09-04T14:42:09;2.55;;;1.90;;
64188;SDS011;50493;50.970;10.082;2022-09-04T14:44:50;2.25;;;1.80;;
64188;SDS011;50493;50.970;10.082;2022-09-04T14:47:38;2.83;;;1.70;;
64188;SDS011;50493;50.970;10.082;2022-09-04T14:50:07;1.88;;;1.67;;
64188;SDS011;50493;50.970;10.082;2022-09-04T14:52:39;2.08;;;1.70;;
64188;SDS011;50493;50.970;10.082;2022-09-04T14:55:10;3.90;;;1.88;;
64188;SDS011;50493;50.970;10.082;2022-09-04T14:57:41;2.90;;;1.90;;
64188;SDS011;50493;50.970;10.082;2022-09-04T15:00:11;2.00;;;1.80;;
64188;SDS011;50493;50.970;10.082;2022-09-04T15:02:39;2.13;;;1.90;;
64188;SDS011;50493;50.970;10.082;2022-09-04T15:07:52;2.72;;;1.95;;
64188;SDS011;50493;50.970;10.082;2022-09-04T15:10:21;2.05;;;1.85;;
64188;SDS011;50493;50.970;10.082;2022-09-04T15:12:51;3.50;;;1.90;;
64188;SDS011;50493;50.970;10.082;2022-09-04T15:15:42;2.25;;;2.05;;
64188;SDS011;50493;50.970;10.082;2022-09-04T15:18:13;2.55;;;2.10;;
64188;SDS011;50493;50.970;10.082;2022-09-04T15:20:48;3.60;;;1.85;;
64188;SDS011;50493;50.970;10.082;2022-09-04T15:23:23;2.00;;;1.80;;
64188;SDS011;50493;50.970;10.082;2022-09-04T15:25:59;2.40;;;2.00;;
64188;SDS011;50493;50.970;10.082;2022-09-04T15:28:31;3.38;;;2.20;;
64188;SDS011;50493;50.970;10.082;2022-09-04T15:31:11;2.67;;;2.00;;
64188;SDS011;50493;50.970;10.082;2022-09-04T15:33:40;2.50;;;1.67;;
64188;SDS011;50493;50.970;10.082;2022-09-04T15:36:07;2.90;;;2.10;;
64188;SDS011;50493;50.970;10.082;2022-09-04T15:38:44;2.05;;;1.80;;
64188;SDS011;50493;50.970;10.082;2022-09-04T15:41:14;2.30;;;2.05;;
64188;SDS011;50493;50.970;10.082;2022-09-04T15:43:44;2.30;;;2.10;;
64188;SDS011;50493;50.970;10.082;2022-09-04T15:46:19;2.17;;;1.70;;
64188;SDS011;50493;50.970;10.082;2022-09-04T15:48:52;3.60;;;2.20;;
64188;SDS011;50493;50.970;10.082;2022-09-04T15:51:25;2.20;;;1.80;;
64188;SDS011;50493;50.970;10.082;2022-09-04T15:56:56;2.40;;;2.00;;
64188;SDS011;50493;50.970;10.082;2022-09-04T15:59:29;3.97;;;2.10;;
64188;SDS011;50493;50.970;10.082;2022-09-04T16:02:03;2.20;;;1.80;;
64188;SDS011;50493;50.970;10.082;2022-09-04T16:04:38;2.78;;;1.95;;
64188;SDS011;50493;50.970;10.082;2022-09-04T16:07:16;2.90;;;1.80;;
64188;SDS011;50493;50.970;10.082;2022-09-04T16:10:02;4.38;;;1.70;;
64188;SDS011;50493;50.970;10.082;2022-09-04T16:12:36;3.33;;;1.80;;
64188;SDS011;50493;50.970;10.082;2022-09-04T16:15:07;3.00;;;1.90;;
64188;SDS011;50493;50.970;10.082;2022-09-04T16:17:37;2.10;;;1.77;;
64188;SDS011;50493;50.970;10.082;2022-09-04T16:20:08;2.58;;;1.83;;
64188;SDS011;50493;50.970;10.082;2022-09-04T16:22:42;2.15;;;1.80;;
64188;SDS011;50493;50.970;10.082;2022-09-04T16:27:48;3.50;;;2.00;;
64188;SDS011;50493;50.970;10.082;2022-09-04T16:32:54;3.15;;;2.05;;
64188;SDS011;50493;50.970;10.082;2022-09-04T16:35:19;2.85;;;1.95;;
64188;SDS011;50493;50.970;10.082;2022-09-04T16:37:47;2.10;;;1.90;;
64188;SDS011;50493;50.970;10.082;2022-09-04T16:40:22;2.30;;;1.90;;
64188;SDS011;50493;50.970;10.082;2022-09-04T16:42:51;3.03;;;1.80;;
64188;SDS011;50493;50.970;10.082;2022-09-04T16:45:24;3.25;;;2.03;;
64188;SDS011;50493;50.970;10.082;2022-09-04T16:47:54;2.03;;;1.80;;
64188;SDS011;50493;50.970;10.082;2022-09-04T16:50:26;2.45;;;1.80;;
64188;SDS011;50493;50.970;10.082;2022-09-04T16:53:01;2.22;;;1.80;;
64188;SDS011;50493;50.970;10.082;2022-09-04T16:55:36;3.65;;;2.03;;
64188;SDS011;50493;50.970;10.082;2022-09-04T16:58:15;3.00;;;1.90;;
64188;SDS011;50493;50.970;10.082;2022-09-04T17:00:55;3.17;;;2.03;;
64188;SDS011;50493;50.970;10.082;2022-09-04T17:03:29;2.63;;;2.30;;
64188;SDS011;50493;50.970;10.082;2022-09-04T17:06:05;2.85;;;2.08;;
64188;SDS011;50493;50.970;10.082;2022-09-04T17:08:44;2.53;;;2.20;;
64188;SDS011;50493;50.970;10.082;2022-09-04T17:11:16;2.50;;;1.60;;
64188;SDS011;50493;50.970;10.082;2022-09-04T17:13:49;2.95;;;2.10;;
64188;SDS011;50493;50.970;10.082;2022-09-04T17:16:23;3.17;;;2.30;;
64188;SDS011;50493;50.970;10.082;2022-09-04T17:18:54;3.10;;;2.40;;
64188;SDS011;50493;50.970;10.082;2022-09-04T17:21:21;2.70;;;2.20;;
64188;SDS011;50493;50.970;10.082;2022-09-04T17:26:42;2.67;;;2.30;;
64188;SDS011;50493;50.970;10.082;2022-09-04T17:29:13;2.88;;;2.33;;
64188;SDS011;50493;50.970;10.082;2022-09-04T17:31:48;2.83;;;2.53;;
64188;SDS011;50493;50.970;10.082;2022-09-04T17:34:19;2.75;;;2.13;;
64188;SDS011;50493;50.970;10.082;2022-09-04T17:36:51;2.80;;;2.40;;
64188;SDS011;50493;50.970;10.082;2022-09-04T17:39:21;2.70;;;2.30;;